sensor_id;sensor_type;location;lat;lon;timestamp;P1;durP1;ratioP1;P2;durP2;ratioP2
71806;SDS011;59655;42.590;23.364;2022-10-30T00:00:08;8.35;;;2.90;;
71806;SDS011;59655;42.590;23.364;2022-10-30T00:02:34;4.10;;;1.95;;
71806;SDS011;59655;42.590;23.364;2022-10-30T00:04:59;6.28;;;2.13;;
71806;SDS011;59655;42.590;23.364;2022-10-30T00:07:24;6.38;;;2.50;;
71806;SDS011;59655;42.590;23.364;2022-10-30T00:09:50;4.75;;;2.10;;
71806;SDS011;59655;42.590;23.364;2022-10-30T00:12:15;4.10;;;2.10;;
71806;SDS011;59655;42.590;23.364;2022-10-30T00:14:40;3.60;;;1.75;;
71806;SDS011;59655;42.590;23.364;2022-10-30T00:17:06;2.70;;;1.63;;
71806;SDS011;59655;42.590;23.364;2022-10-30T00:19:31;3.38;;;1.85;;
71806;SDS011;59655;42.590;23.364;2022-10-30T00:21:56;4.93;;;2.60;;
71806;SDS011;59655;42.590;23.364;2022-10-30T00:24:22;5.22;;;2.00;;
71806;SDS011;59655;42.590;23.364;2022-10-30T00:26:48;5.28;;;1.90;;
71806;SDS011;59655;42.590;23.364;2022-10-30T00:29:14;3.13;;;1.73;;
71806;SDS011;59655;42.590;23.364;2022-10-30T00:31:39;4.25;;;1.63;;
71806;SDS011;59655;42.590;23.364;2022-10-30T00:34:05;4.10;;;1.58;;
71806;SDS011;59655;42.590;23.364;2022-10-30T00:36:30;4.03;;;1.75;;
71806;SDS011;59655;42.590;23.364;2022-10-30T00:38:55;5.93;;;1.98;;
71806;SDS011;59655;42.590;23.364;2022-10-30T00:41:21;3.35;;;1.67;;
71806;SDS011;59655;42.590;23.364;2022-10-30T00:43:48;4.72;;;1.92;;
71806;SDS011;59655;42.590;23.364;2022-10-30T00:46:15;4.38;;;1.85;;
71806;SDS011;59655;42.590;23.364;2022-10-30T00:48:43;4.03;;;1.80;;
71806;SDS011;59655;42.590;23.364;2022-10-30T00:51:11;3.25;;;1.80;;
71806;SDS011;59655;42.590;23.364;2022-10-30T00:53:37;4.07;;;1.85;;
71806;SDS011;59655;42.590;23.364;2022-10-30T00:56:05;4.82;;;2.00;;
71806;SDS011;59655;42.590;23.364;2022-10-30T01:01:01;7.22;;;2.22;;
71806;SDS011;59655;42.590;23.364;2022-10-30T01:03:29;3.95;;;1.90;;
71806;SDS011;59655;42.590;23.364;2022-10-30T01:05:57;4.18;;;1.80;;
71806;SDS011;59655;42.590;23.364;2022-10-30T01:08:26;4.28;;;1.92;;
71806;SDS011;59655;42.590;23.364;2022-10-30T01:10:52;4.35;;;1.90;;
71806;SDS011;59655;42.590;23.364;2022-10-30T01:13:18;4.07;;;1.92;;
71806;SDS011;59655;42.590;23.364;2022-10-30T01:15:50;3.35;;;1.70;;
71806;SDS011;59655;42.590;23.364;2022-10-30T01:18:40;3.20;;;1.50;;
71806;SDS011;59655;42.590;23.364;2022-10-30T01:23:55;3.88;;;1.75;;
71806;SDS011;59655;42.590;23.364;2022-10-30T01:26:33;4.10;;;1.67;;
71806;SDS011;59655;42.590;23.364;2022-10-30T01:35:01;3.83;;;1.50;;
71806;SDS011;59655;42.590;23.364;2022-10-30T01:40:14;3.83;;;1.52;;
71806;SDS011;59655;42.590;23.364;2022-10-30T01:45:16;2.80;;;1.08;;
71806;SDS011;59655;42.590;23.364;2022-10-30T01:50:30;2.83;;;1.35;;
71806;SDS011;59655;42.590;23.364;2022-10-30T01:53:03;2.80;;;1.40;;
71806;SDS011;59655;42.590;23.364;2022-10-30T01:58:33;3.28;;;1.70;;
71806;SDS011;59655;42.590;23.364;2022-10-30T02:03:28;4.70;;;1.98;;
71806;SDS011;59655;42.590;23.364;2022-10-30T02:05:55;3.53;;;1.73;;
71806;SDS011;59655;42.590;23.364;2022-10-30T02:08:20;4.53;;;2.10;;
71806;SDS011;59655;42.590;23.364;2022-10-30T02:10:46;5.43;;;2.47;;
71806;SDS011;59655;42.590;23.364;2022-10-30T02:13:13;5.05;;;2.25;;
71806;SDS011;59655;42.590;23.364;2022-10-30T02:15:39;5.05;;;2.63;;
71806;SDS011;59655;42.590;23.364;2022-10-30T02:18:06;5.22;;;2.55;;
71806;SDS011;59655;42.590;23.364;2022-10-30T02:20:31;5.03;;;2.40;;
71806;SDS011;59655;42.590;23.364;2022-10-30T02:22:57;5.72;;;2.83;;
71806;SDS011;59655;42.590;23.364;2022-10-30T02:25:22;5.32;;;3.17;;
71806;SDS011;59655;42.590;23.364;2022-10-30T02:27:48;5.95;;;2.70;;
71806;SDS011;59655;42.590;23.364;2022-10-30T02:30:13;4.63;;;2.50;;
71806;SDS011;59655;42.590;23.364;2022-10-30T02:32:39;7.35;;;2.75;;
71806;SDS011;59655;42.590;23.364;2022-10-30T02:35:04;6.25;;;2.70;;
71806;SDS011;59655;42.590;23.364;2022-10-30T02:37:30;4.88;;;2.80;;
71806;SDS011;59655;42.590;23.364;2022-10-30T02:39:59;4.75;;;2.58;;
71806;SDS011;59655;42.590;23.364;2022-10-30T02:42:28;4.22;;;2.30;;
71806;SDS011;59655;42.590;23.364;2022-10-30T02:44:54;5.18;;;2.85;;
71806;SDS011;59655;42.590;23.364;2022-10-30T02:47:19;6.38;;;3.55;;
71806;SDS011;59655;42.590;23.364;2022-10-30T02:49:44;7.53;;;4.30;;
71806;SDS011;59655;42.590;23.364;2022-10-30T02:52:10;9.02;;;4.47;;
71806;SDS011;59655;42.590;23.364;2022-10-30T02:54:35;6.30;;;4.03;;
71806;SDS011;59655;42.590;23.364;2022-10-30T02:57:01;4.07;;;2.75;;
71806;SDS011;59655;42.590;23.364;2022-10-30T02:59:26;4.80;;;2.70;;
71806;SDS011;59655;42.590;23.364;2022-10-30T03:01:51;6.07;;;2.63;;
71806;SDS011;59655;42.590;23.364;2022-10-30T03:04:17;7.15;;;3.10;;
71806;SDS011;59655;42.590;23.364;2022-10-30T03:06:42;6.05;;;2.67;;
71806;SDS011;59655;42.590;23.364;2022-10-30T03:09:07;4.75;;;2.40;;
71806;SDS011;59655;42.590;23.364;2022-10-30T03:11:33;6.30;;;3.28;;
71806;SDS011;59655;42.590;23.364;2022-10-30T03:13:59;8.48;;;3.75;;
71806;SDS011;59655;42.590;23.364;2022-10-30T03:16:25;5.90;;;2.92;;
71806;SDS011;59655;42.590;23.364;2022-10-30T03:18:53;6.45;;;2.95;;
71806;SDS011;59655;42.590;23.364;2022-10-30T03:21:20;6.15;;;2.65;;
71806;SDS011;59655;42.590;23.364;2022-10-30T03:23:48;6.60;;;3.20;;
71806;SDS011;59655;42.590;23.364;2022-10-30T03:26:17;7.28;;;3.20;;
71806;SDS011;59655;42.590;23.364;2022-10-30T03:28:43;6.68;;;3.40;;
71806;SDS011;59655;42.590;23.364;2022-10-30T03:31:09;6.07;;;3.22;;
71806;SDS011;59655;42.590;23.364;2022-10-30T03:33:36;9.80;;;3.03;;
71806;SDS011;59655;42.590;23.364;2022-10-30T03:36:03;6.63;;;3.10;;
71806;SDS011;59655;42.590;23.364;2022-10-30T03:38:29;6.28;;;3.17;;
71806;SDS011;59655;42.590;23.364;2022-10-30T03:40:55;6.97;;;3.30;;
71806;SDS011;59655;42.590;23.364;2022-10-30T03:43:20;6.72;;;3.47;;
71806;SDS011;59655;42.590;23.364;2022-10-30T03:45:46;7.75;;;3.35;;
71806;SDS011;59655;42.590;23.364;2022-10-30T03:48:13;8.00;;;3.78;;
71806;SDS011;59655;42.590;23.364;2022-10-30T03:50:38;8.63;;;3.08;;
71806;SDS011;59655;42.590;23.364;2022-10-30T03:53:04;9.63;;;3.47;;
71806;SDS011;59655;42.590;23.364;2022-10-30T03:55:29;7.43;;;3.55;;
71806;SDS011;59655;42.590;23.364;2022-10-30T03:57:54;11.55;;;4.13;;
71806;SDS011;59655;42.590;23.364;2022-10-30T04:00:20;10.27;;;2.92;;
71806;SDS011;59655;42.590;23.364;2022-10-30T04:02:49;5.50;;;2.95;;
71806;SDS011;59655;42.590;23.364;2022-10-30T04:05:16;6.93;;;3.30;;
71806;SDS011;59655;42.590;23.364;2022-10-30T04:07:43;6.40;;;2.78;;
71806;SDS011;59655;42.590;23.364;2022-10-30T04:10:09;6.97;;;3.30;;
71806;SDS011;59655;42.590;23.364;2022-10-30T04:12:35;10.20;;;4.53;;
71806;SDS011;59655;42.590;23.364;2022-10-30T04:15:01;9.00;;;4.32;;
71806;SDS011;59655;42.590;23.364;2022-10-30T04:17:26;13.50;;;5.20;;
71806;SDS011;59655;42.590;23.364;2022-10-30T04:19:52;13.82;;;6.00;;
71806;SDS011;59655;42.590;23.364;2022-10-30T04:22:17;9.27;;;4.03;;
71806;SDS011;59655;42.590;23.364;2022-10-30T04:24:42;11.90;;;5.63;;
71806;SDS011;59655;42.590;23.364;2022-10-30T04:27:08;17.17;;;6.50;;
71806;SDS011;59655;42.590;23.364;2022-10-30T04:29:34;22.90;;;8.52;;
71806;SDS011;59655;42.590;23.364;2022-10-30T04:32:01;30.48;;;11.32;;
71806;SDS011;59655;42.590;23.364;2022-10-30T04:34:26;30.45;;;11.60;;
71806;SDS011;59655;42.590;23.364;2022-10-30T04:36:52;28.35;;;10.80;;
71806;SDS011;59655;42.590;23.364;2022-10-30T04:39:17;25.67;;;10.95;;
71806;SDS011;59655;42.590;23.364;2022-10-30T04:41:43;21.90;;;8.82;;
71806;SDS011;59655;42.590;23.364;2022-10-30T04:44:08;24.88;;;9.75;;
71806;SDS011;59655;42.590;23.364;2022-10-30T04:46:33;20.73;;;9.75;;
71806;SDS011;59655;42.590;23.364;2022-10-30T04:48:59;27.73;;;10.73;;
71806;SDS011;59655;42.590;23.364;2022-10-30T04:51:24;28.65;;;11.30;;
71806;SDS011;59655;42.590;23.364;2022-10-30T04:53:50;26.52;;;10.73;;
71806;SDS011;59655;42.590;23.364;2022-10-30T04:56:15;23.80;;;10.48;;
71806;SDS011;59655;42.590;23.364;2022-10-30T04:58:41;19.85;;;8.73;;
71806;SDS011;59655;42.590;23.364;2022-10-30T05:01:06;19.15;;;9.40;;
71806;SDS011;59655;42.590;23.364;2022-10-30T05:03:32;21.33;;;9.60;;
71806;SDS011;59655;42.590;23.364;2022-10-30T05:06:02;19.50;;;9.13;;
71806;SDS011;59655;42.590;23.364;2022-10-30T05:08:30;26.63;;;11.02;;
71806;SDS011;59655;42.590;23.364;2022-10-30T05:10:55;26.10;;;12.02;;
71806;SDS011;59655;42.590;23.364;2022-10-30T05:13:21;24.10;;;11.27;;
71806;SDS011;59655;42.590;23.364;2022-10-30T05:15:46;25.65;;;12.23;;
71806;SDS011;59655;42.590;23.364;2022-10-30T05:18:12;24.02;;;12.75;;
71806;SDS011;59655;42.590;23.364;2022-10-30T05:20:37;26.42;;;14.15;;
71806;SDS011;59655;42.590;23.364;2022-10-30T05:23:03;31.20;;;13.40;;
71806;SDS011;59655;42.590;23.364;2022-10-30T05:25:29;30.83;;;14.40;;
71806;SDS011;59655;42.590;23.364;2022-10-30T05:27:58;27.60;;;13.60;;
71806;SDS011;59655;42.590;23.364;2022-10-30T05:30:28;34.72;;;14.35;;
71806;SDS011;59655;42.590;23.364;2022-10-30T05:33:04;28.92;;;13.38;;
71806;SDS011;59655;42.590;23.364;2022-10-30T05:35:34;29.90;;;13.80;;
71806;SDS011;59655;42.590;23.364;2022-10-30T05:38:00;29.65;;;14.05;;
71806;SDS011;59655;42.590;23.364;2022-10-30T05:40:27;33.20;;;14.88;;
71806;SDS011;59655;42.590;23.364;2022-10-30T05:42:52;29.25;;;14.07;;
71806;SDS011;59655;42.590;23.364;2022-10-30T05:45:18;26.85;;;11.95;;
71806;SDS011;59655;42.590;23.364;2022-10-30T05:47:43;25.67;;;11.20;;
71806;SDS011;59655;42.590;23.364;2022-10-30T05:50:17;29.05;;;11.18;;
71806;SDS011;59655;42.590;23.364;2022-10-30T05:52:43;24.85;;;10.25;;
71806;SDS011;59655;42.590;23.364;2022-10-30T05:55:08;23.15;;;9.35;;
71806;SDS011;59655;42.590;23.364;2022-10-30T05:57:33;25.95;;;11.02;;
71806;SDS011;59655;42.590;23.364;2022-10-30T05:59:59;30.02;;;12.38;;
71806;SDS011;59655;42.590;23.364;2022-10-30T06:02:24;28.45;;;11.75;;
71806;SDS011;59655;42.590;23.364;2022-10-30T06:04:49;23.33;;;11.25;;
71806;SDS011;59655;42.590;23.364;2022-10-30T06:07:15;26.13;;;12.07;;
71806;SDS011;59655;42.590;23.364;2022-10-30T06:09:40;28.88;;;12.40;;
71806;SDS011;59655;42.590;23.364;2022-10-30T06:12:05;33.40;;;13.48;;
71806;SDS011;59655;42.590;23.364;2022-10-30T06:14:31;35.47;;;15.02;;
71806;SDS011;59655;42.590;23.364;2022-10-30T06:16:56;48.33;;;19.67;;
71806;SDS011;59655;42.590;23.364;2022-10-30T06:19:22;46.70;;;20.13;;
71806;SDS011;59655;42.590;23.364;2022-10-30T06:21:47;50.65;;;21.38;;
71806;SDS011;59655;42.590;23.364;2022-10-30T06:24:13;46.58;;;22.30;;
71806;SDS011;59655;42.590;23.364;2022-10-30T06:26:38;47.28;;;20.15;;
71806;SDS011;59655;42.590;23.364;2022-10-30T06:29:04;43.47;;;19.88;;
71806;SDS011;59655;42.590;23.364;2022-10-30T06:31:29;49.83;;;19.58;;
71806;SDS011;59655;42.590;23.364;2022-10-30T06:33:55;39.50;;;19.15;;
71806;SDS011;59655;42.590;23.364;2022-10-30T06:36:20;35.97;;;17.60;;
71806;SDS011;59655;42.590;23.364;2022-10-30T06:38:46;32.58;;;16.13;;
71806;SDS011;59655;42.590;23.364;2022-10-30T06:41:11;39.75;;;16.02;;
71806;SDS011;59655;42.590;23.364;2022-10-30T06:43:36;36.83;;;15.48;;
71806;SDS011;59655;42.590;23.364;2022-10-30T06:46:02;33.10;;;13.68;;
71806;SDS011;59655;42.590;23.364;2022-10-30T06:48:27;27.30;;;13.38;;
71806;SDS011;59655;42.590;23.364;2022-10-30T06:50:56;27.83;;;13.60;;
71806;SDS011;59655;42.590;23.364;2022-10-30T06:53:23;33.95;;;13.75;;
71806;SDS011;59655;42.590;23.364;2022-10-30T06:58:21;34.15;;;15.13;;
71806;SDS011;59655;42.590;23.364;2022-10-30T07:00:47;30.77;;;14.70;;
71806;SDS011;59655;42.590;23.364;2022-10-30T07:03:12;33.85;;;14.35;;
71806;SDS011;59655;42.590;23.364;2022-10-30T07:05:37;32.58;;;13.48;;
71806;SDS011;59655;42.590;23.364;2022-10-30T07:08:03;31.65;;;14.15;;
71806;SDS011;59655;42.590;23.364;2022-10-30T07:10:28;27.08;;;13.50;;
71806;SDS011;59655;42.590;23.364;2022-10-30T07:12:54;37.20;;;15.48;;
71806;SDS011;59655;42.590;23.364;2022-10-30T07:15:20;49.78;;;17.95;;
71806;SDS011;59655;42.590;23.364;2022-10-30T07:17:56;27.08;;;13.10;;
71806;SDS011;59655;42.590;23.364;2022-10-30T07:20:23;17.98;;;9.93;;
71806;SDS011;59655;42.590;23.364;2022-10-30T07:22:52;22.60;;;12.65;;
71806;SDS011;59655;42.590;23.364;2022-10-30T07:25:18;21.83;;;11.65;;
71806;SDS011;59655;42.590;23.364;2022-10-30T07:27:48;25.58;;;11.30;;
71806;SDS011;59655;42.590;23.364;2022-10-30T07:30:18;33.22;;;14.05;;
71806;SDS011;59655;42.590;23.364;2022-10-30T07:32:45;41.17;;;15.90;;
71806;SDS011;59655;42.590;23.364;2022-10-30T07:37:45;40.73;;;16.60;;
71806;SDS011;59655;42.590;23.364;2022-10-30T07:40:10;48.53;;;18.25;;
71806;SDS011;59655;42.590;23.364;2022-10-30T07:42:35;45.40;;;18.60;;
71806;SDS011;59655;42.590;23.364;2022-10-30T07:45:01;47.22;;;20.60;;
71806;SDS011;59655;42.590;23.364;2022-10-30T07:47:26;46.20;;;18.40;;
71806;SDS011;59655;42.590;23.364;2022-10-30T07:49:52;46.15;;;18.50;;
71806;SDS011;59655;42.590;23.364;2022-10-30T07:52:17;37.05;;;16.73;;
71806;SDS011;59655;42.590;23.364;2022-10-30T07:54:42;37.05;;;16.75;;
71806;SDS011;59655;42.590;23.364;2022-10-30T07:57:08;36.75;;;14.93;;
71806;SDS011;59655;42.590;23.364;2022-10-30T07:59:33;33.45;;;15.10;;
71806;SDS011;59655;42.590;23.364;2022-10-30T08:01:59;35.17;;;15.82;;
71806;SDS011;59655;42.590;23.364;2022-10-30T08:04:27;37.35;;;15.88;;
71806;SDS011;59655;42.590;23.364;2022-10-30T08:06:53;35.92;;;16.67;;
71806;SDS011;59655;42.590;23.364;2022-10-30T08:09:18;39.88;;;17.15;;
71806;SDS011;59655;42.590;23.364;2022-10-30T08:11:43;43.03;;;18.77;;
71806;SDS011;59655;42.590;23.364;2022-10-30T08:14:09;41.85;;;17.00;;
71806;SDS011;59655;42.590;23.364;2022-10-30T08:16:34;38.22;;;16.77;;
71806;SDS011;59655;42.590;23.364;2022-10-30T08:18:59;35.28;;;15.73;;
71806;SDS011;59655;42.590;23.364;2022-10-30T08:21:25;38.63;;;16.50;;
71806;SDS011;59655;42.590;23.364;2022-10-30T08:23:50;37.33;;;16.38;;
71806;SDS011;59655;42.590;23.364;2022-10-30T08:26:16;37.97;;;15.88;;
71806;SDS011;59655;42.590;23.364;2022-10-30T08:28:41;41.72;;;17.73;;
71806;SDS011;59655;42.590;23.364;2022-10-30T08:31:07;34.53;;;16.60;;
71806;SDS011;59655;42.590;23.364;2022-10-30T08:33:32;36.72;;;15.93;;
71806;SDS011;59655;42.590;23.364;2022-10-30T08:35:58;44.15;;;17.67;;
71806;SDS011;59655;42.590;23.364;2022-10-30T08:38:24;33.30;;;16.33;;
71806;SDS011;59655;42.590;23.364;2022-10-30T08:40:51;33.47;;;15.07;;
71806;SDS011;59655;42.590;23.364;2022-10-30T08:57:39;39.43;;;18.80;;
71806;SDS011;59655;42.590;23.364;2022-10-30T09:00:05;38.60;;;18.92;;
71806;SDS011;59655;42.590;23.364;2022-10-30T09:02:31;36.25;;;17.35;;
71806;SDS011;59655;42.590;23.364;2022-10-30T09:04:57;37.03;;;16.42;;
71806;SDS011;59655;42.590;23.364;2022-10-30T09:07:22;36.22;;;15.93;;
71806;SDS011;59655;42.590;23.364;2022-10-30T09:09:48;44.22;;;17.35;;
71806;SDS011;59655;42.590;23.364;2022-10-30T09:12:13;38.25;;;16.35;;
71806;SDS011;59655;42.590;23.364;2022-10-30T09:14:40;40.75;;;17.55;;
71806;SDS011;59655;42.590;23.364;2022-10-30T09:17:05;44.45;;;18.35;;
71806;SDS011;59655;42.590;23.364;2022-10-30T09:19:30;42.63;;;17.08;;
71806;SDS011;59655;42.590;23.364;2022-10-30T09:21:56;39.72;;;18.08;;
71806;SDS011;59655;42.590;23.364;2022-10-30T09:24:21;46.55;;;19.88;;
71806;SDS011;59655;42.590;23.364;2022-10-30T09:26:47;47.70;;;19.17;;
71806;SDS011;59655;42.590;23.364;2022-10-30T09:29:12;46.15;;;19.27;;
71806;SDS011;59655;42.590;23.364;2022-10-30T09:31:37;38.60;;;17.65;;
71806;SDS011;59655;42.590;23.364;2022-10-30T09:34:03;35.17;;;16.85;;
71806;SDS011;59655;42.590;23.364;2022-10-30T09:36:28;48.13;;;16.50;;
71806;SDS011;59655;42.590;23.364;2022-10-30T09:38:54;33.78;;;17.27;;
71806;SDS011;59655;42.590;23.364;2022-10-30T09:41:33;33.28;;;16.45;;
71806;SDS011;59655;42.590;23.364;2022-10-30T10:00:35;43.22;;;19.75;;
71806;SDS011;59655;42.590;23.364;2022-10-30T10:05:57;43.50;;;19.83;;
71806;SDS011;59655;42.590;23.364;2022-10-30T10:08:27;42.10;;;19.05;;
71806;SDS011;59655;42.590;23.364;2022-10-30T10:11:02;44.65;;;18.00;;
71806;SDS011;59655;42.590;23.364;2022-10-30T10:13:36;47.38;;;19.55;;
71806;SDS011;59655;42.590;23.364;2022-10-30T10:16:11;42.35;;;19.17;;
71806;SDS011;59655;42.590;23.364;2022-10-30T10:18:45;44.53;;;21.73;;
71806;SDS011;59655;42.590;23.364;2022-10-30T10:21:16;49.40;;;22.67;;
71806;SDS011;59655;42.590;23.364;2022-10-30T10:23:48;52.50;;;24.05;;
71806;SDS011;59655;42.590;23.364;2022-10-30T10:29:09;47.92;;;22.42;;
71806;SDS011;59655;42.590;23.364;2022-10-30T10:34:44;43.75;;;20.38;;
71806;SDS011;59655;42.590;23.364;2022-10-30T10:37:34;45.65;;;22.35;;
71806;SDS011;59655;42.590;23.364;2022-10-30T10:40:18;46.67;;;22.20;;
71806;SDS011;59655;42.590;23.364;2022-10-30T10:50:55;44.53;;;20.63;;
71806;SDS011;59655;42.590;23.364;2022-10-30T10:53:23;62.42;;;23.13;;
71806;SDS011;59655;42.590;23.364;2022-10-30T10:55:56;52.00;;;23.85;;
71806;SDS011;59655;42.590;23.364;2022-10-30T10:58:29;55.63;;;23.67;;
71806;SDS011;59655;42.590;23.364;2022-10-30T11:00:58;73.07;;;25.42;;
71806;SDS011;59655;42.590;23.364;2022-10-30T11:06:17;48.88;;;21.20;;
71806;SDS011;59655;42.590;23.364;2022-10-30T11:08:44;39.35;;;19.20;;
71806;SDS011;59655;42.590;23.364;2022-10-30T11:11:09;39.38;;;19.65;;
71806;SDS011;59655;42.590;23.364;2022-10-30T11:13:41;37.63;;;18.05;;
71806;SDS011;59655;42.590;23.364;2022-10-30T11:16:20;42.88;;;17.38;;
71806;SDS011;59655;42.590;23.364;2022-10-30T11:18:50;36.33;;;16.80;;
71806;SDS011;59655;42.590;23.364;2022-10-30T11:21:23;33.88;;;14.18;;
71806;SDS011;59655;42.590;23.364;2022-10-30T11:23:50;30.77;;;13.60;;
71806;SDS011;59655;42.590;23.364;2022-10-30T11:28:49;34.95;;;16.85;;
71806;SDS011;59655;42.590;23.364;2022-10-30T11:31:17;34.35;;;15.95;;
71806;SDS011;59655;42.590;23.364;2022-10-30T11:33:46;30.92;;;12.45;;
71806;SDS011;59655;42.590;23.364;2022-10-30T11:36:20;30.42;;;11.48;;
71806;SDS011;59655;42.590;23.364;2022-10-30T11:38:47;46.53;;;8.82;;
71806;SDS011;59655;42.590;23.364;2022-10-30T11:41:12;29.63;;;10.32;;
71806;SDS011;59655;42.590;23.364;2022-10-30T11:43:39;22.98;;;6.85;;
71806;SDS011;59655;42.590;23.364;2022-10-30T11:46:08;24.48;;;9.15;;
71806;SDS011;59655;42.590;23.364;2022-10-30T11:48:38;28.70;;;12.52;;
71806;SDS011;59655;42.590;23.364;2022-10-30T11:51:08;30.15;;;11.73;;
71806;SDS011;59655;42.590;23.364;2022-10-30T11:53:36;29.73;;;12.90;;
71806;SDS011;59655;42.590;23.364;2022-10-30T11:56:13;30.00;;;11.52;;
71806;SDS011;59655;42.590;23.364;2022-10-30T11:58:43;23.77;;;10.88;;
71806;SDS011;59655;42.590;23.364;2022-10-30T12:01:21;28.63;;;11.38;;
71806;SDS011;59655;42.590;23.364;2022-10-30T12:03:48;33.10;;;12.02;;
71806;SDS011;59655;42.590;23.364;2022-10-30T12:08:59;23.73;;;9.18;;
71806;SDS011;59655;42.590;23.364;2022-10-30T12:11:32;27.73;;;10.30;;
71806;SDS011;59655;42.590;23.364;2022-10-30T12:13:59;21.20;;;9.63;;
71806;SDS011;59655;42.590;23.364;2022-10-30T12:16:25;25.33;;;9.95;;
71806;SDS011;59655;42.590;23.364;2022-10-30T12:18:53;35.28;;;15.63;;
71806;SDS011;59655;42.590;23.364;2022-10-30T12:21:23;27.08;;;10.05;;
71806;SDS011;59655;42.590;23.364;2022-10-30T12:23:52;20.65;;;9.35;;
71806;SDS011;59655;42.590;23.364;2022-10-30T12:26:21;20.05;;;9.43;;
71806;SDS011;59655;42.590;23.364;2022-10-30T12:28:58;18.13;;;8.75;;
71806;SDS011;59655;42.590;23.364;2022-10-30T12:31:32;18.17;;;8.77;;
71806;SDS011;59655;42.590;23.364;2022-10-30T12:34:11;19.27;;;9.27;;
71806;SDS011;59655;42.590;23.364;2022-10-30T12:36:49;19.40;;;8.80;;
71806;SDS011;59655;42.590;23.364;2022-10-30T12:39:23;21.63;;;8.32;;
71806;SDS011;59655;42.590;23.364;2022-10-30T12:44:25;17.02;;;7.22;;
71806;SDS011;59655;42.590;23.364;2022-10-30T12:47:05;22.08;;;8.45;;
71806;SDS011;59655;42.590;23.364;2022-10-30T12:49:41;19.02;;;8.90;;
71806;SDS011;59655;42.590;23.364;2022-10-30T12:57:18;15.32;;;6.80;;
71806;SDS011;59655;42.590;23.364;2022-10-30T13:02:22;15.52;;;6.82;;
71806;SDS011;59655;42.590;23.364;2022-10-30T13:05:01;31.02;;;8.43;;
71806;SDS011;59655;42.590;23.364;2022-10-30T13:07:34;19.10;;;7.28;;
71806;SDS011;59655;42.590;23.364;2022-10-30T13:12:50;15.50;;;6.78;;
71806;SDS011;59655;42.590;23.364;2022-10-30T13:15:35;15.93;;;6.63;;
71806;SDS011;59655;42.590;23.364;2022-10-30T13:18:11;15.73;;;7.63;;
71806;SDS011;59655;42.590;23.364;2022-10-30T13:20:39;21.05;;;8.18;;
71806;SDS011;59655;42.590;23.364;2022-10-30T13:23:19;14.18;;;6.40;;
71806;SDS011;59655;42.590;23.364;2022-10-30T13:25:54;15.70;;;6.53;;
71806;SDS011;59655;42.590;23.364;2022-10-30T13:28:25;13.15;;;6.18;;
71806;SDS011;59655;42.590;23.364;2022-10-30T13:50:15;11.80;;;4.40;;
71806;SDS011;59655;42.590;23.364;2022-10-30T13:52:39;9.15;;;4.43;;
71806;SDS011;59655;42.590;23.364;2022-10-30T13:55:17;14.95;;;4.05;;
71806;SDS011;59655;42.590;23.364;2022-10-30T14:00:48;11.60;;;4.05;;
71806;SDS011;59655;42.590;23.364;2022-10-30T14:03:35;17.48;;;5.15;;
71806;SDS011;59655;42.590;23.364;2022-10-30T14:08:47;11.40;;;5.00;;
71806;SDS011;59655;42.590;23.364;2022-10-30T14:11:15;12.02;;;4.75;;
71806;SDS011;59655;42.590;23.364;2022-10-30T14:13:52;15.95;;;4.20;;
71806;SDS011;59655;42.590;23.364;2022-10-30T14:19:03;9.60;;;3.33;;
71806;SDS011;59655;42.590;23.364;2022-10-30T14:21:52;11.15;;;3.05;;
71806;SDS011;59655;42.590;23.364;2022-10-30T14:24:20;9.27;;;3.10;;
71806;SDS011;59655;42.590;23.364;2022-10-30T14:31:58;18.38;;;4.07;;
71806;SDS011;59655;42.590;23.364;2022-10-30T14:37:08;18.00;;;4.63;;
71806;SDS011;59655;42.590;23.364;2022-10-30T14:39:38;17.45;;;4.50;;
71806;SDS011;59655;42.590;23.364;2022-10-30T14:51:01;39.63;;;7.10;;
71806;SDS011;59655;42.590;23.364;2022-10-30T14:53:19;12.73;;;4.95;;
71806;SDS011;59655;42.590;23.364;2022-10-30T14:59:07;20.55;;;5.68;;
71806;SDS011;59655;42.590;23.364;2022-10-30T15:15:26;11.48;;;5.00;;
71806;SDS011;59655;42.590;23.364;2022-10-30T15:17:52;14.80;;;4.47;;
71806;SDS011;59655;42.590;23.364;2022-10-30T15:20:22;11.30;;;4.05;;
71806;SDS011;59655;42.590;23.364;2022-10-30T15:22:51;11.18;;;3.50;;
71806;SDS011;59655;42.590;23.364;2022-10-30T15:25:19;13.05;;;4.32;;
71806;SDS011;59655;42.590;23.364;2022-10-30T15:27:47;11.75;;;5.80;;
71806;SDS011;59655;42.590;23.364;2022-10-30T15:30:17;14.60;;;4.57;;
71806;SDS011;59655;42.590;23.364;2022-10-30T15:35:15;10.85;;;4.30;;
71806;SDS011;59655;42.590;23.364;2022-10-30T15:38:02;12.38;;;4.10;;
71806;SDS011;59655;42.590;23.364;2022-10-30T15:40:37;12.38;;;3.85;;
71806;SDS011;59655;42.590;23.364;2022-10-30T15:43:03;13.40;;;4.25;;
71806;SDS011;59655;42.590;23.364;2022-10-30T15:45:35;8.68;;;3.88;;
71806;SDS011;59655;42.590;23.364;2022-10-30T15:51:04;11.45;;;3.80;;
71806;SDS011;59655;42.590;23.364;2022-10-30T15:53:39;12.05;;;3.80;;
71806;SDS011;59655;42.590;23.364;2022-10-30T15:56:15;12.07;;;3.80;;
71806;SDS011;59655;42.590;23.364;2022-10-30T15:59:02;10.27;;;4.40;;
71806;SDS011;59655;42.590;23.364;2022-10-30T16:01:33;12.23;;;5.68;;
71806;SDS011;59655;42.590;23.364;2022-10-30T16:04:03;9.98;;;4.10;;
71806;SDS011;59655;42.590;23.364;2022-10-30T16:06:30;11.93;;;4.10;;
71806;SDS011;59655;42.590;23.364;2022-10-30T16:08:56;11.13;;;3.92;;
71806;SDS011;59655;42.590;23.364;2022-10-30T16:11:22;11.13;;;4.15;;
71806;SDS011;59655;42.590;23.364;2022-10-30T16:13:49;11.73;;;4.18;;
71806;SDS011;59655;42.590;23.364;2022-10-30T16:16:28;12.02;;;4.63;;
71806;SDS011;59655;42.590;23.364;2022-10-30T16:21:24;9.00;;;3.92;;
71806;SDS011;59655;42.590;23.364;2022-10-30T16:23:55;11.40;;;4.32;;
71806;SDS011;59655;42.590;23.364;2022-10-30T16:26:30;18.90;;;5.97;;
71806;SDS011;59655;42.590;23.364;2022-10-30T16:29:01;15.00;;;5.03;;
71806;SDS011;59655;42.590;23.364;2022-10-30T16:31:40;13.88;;;4.40;;
71806;SDS011;59655;42.590;23.364;2022-10-30T16:34:12;12.48;;;4.53;;
71806;SDS011;59655;42.590;23.364;2022-10-30T16:36:45;14.02;;;4.70;;
71806;SDS011;59655;42.590;23.364;2022-10-30T16:39:12;11.75;;;4.45;;
71806;SDS011;59655;42.590;23.364;2022-10-30T16:41:41;9.70;;;4.65;;
71806;SDS011;59655;42.590;23.364;2022-10-30T16:46:57;7.45;;;4.25;;
71806;SDS011;59655;42.590;23.364;2022-10-30T16:49:29;10.25;;;3.72;;
71806;SDS011;59655;42.590;23.364;2022-10-30T16:51:57;17.88;;;4.78;;
71806;SDS011;59655;42.590;23.364;2022-10-30T16:54:27;9.85;;;3.70;;
71806;SDS011;59655;42.590;23.364;2022-10-30T16:56:56;9.55;;;4.10;;
71806;SDS011;59655;42.590;23.364;2022-10-30T16:59:34;10.52;;;3.55;;
71806;SDS011;59655;42.590;23.364;2022-10-30T17:02:13;18.30;;;4.10;;
71806;SDS011;59655;42.590;23.364;2022-10-30T17:04:44;12.45;;;4.95;;
71806;SDS011;59655;42.590;23.364;2022-10-30T17:07:39;10.40;;;4.40;;
71806;SDS011;59655;42.590;23.364;2022-10-30T17:10:41;11.77;;;5.43;;
71806;SDS011;59655;42.590;23.364;2022-10-30T17:16:21;11.60;;;4.30;;
71806;SDS011;59655;42.590;23.364;2022-10-30T17:18:49;19.25;;;4.30;;
71806;SDS011;59655;42.590;23.364;2022-10-30T17:21:16;11.57;;;4.20;;